sensor_id;sensor_type;location;lat;lon;timestamp;temperature;humidity
6281;DHT22;3173;48.204;11.612;2022-09-12T00:00:44;11.90;99.90
6281;DHT22;3173;48.204;11.612;2022-09-12T00:03:10;11.80;99.90
6281;DHT22;3173;48.204;11.612;2022-09-12T00:05:40;11.90;99.90
6281;DHT22;3173;48.204;11.612;2022-09-12T00:08:06;11.80;99.90
6281;DHT22;3173;48.204;11.612;2022-09-12T00:10:32;11.90;99.90
6281;DHT22;3173;48.204;11.612;2022-09-12T00:12:58;11.90;99.90
6281;DHT22;3173;48.204;11.612;2022-09-12T00:15:23;11.90;99.90
6281;DHT22;3173;48.204;11.612;2022-09-12T00:17:49;11.90;99.90
6281;DHT22;3173;48.204;11.612;2022-09-12T00:20:14;11.90;99.90
6281;DHT22;3173;48.204;11.612;2022-09-12T00:22:40;12.00;99.90
6281;DHT22;3173;48.204;11.612;2022-09-12T00:25:06;11.80;99.90
6281;DHT22;3173;48.204;11.612;2022-09-12T00:27:31;11.70;99.90
6281;DHT22;3173;48.204;11.612;2022-09-12T00:29:57;11.80;99.90
6281;DHT22;3173;48.204;11.612;2022-09-12T00:32:22;11.80;99.90
6281;DHT22;3173;48.204;11.612;2022-09-12T00:34:48;11.70;99.90
6281;DHT22;3173;48.204;11.612;2022-09-12T00:37:14;11.70;99.90
6281;DHT22;3173;48.204;11.612;2022-09-12T00:39:39;11.70;99.90
6281;DHT22;3173;48.204;11.612;2022-09-12T00:42:05;11.60;99.90
6281;DHT22;3173;48.204;11.612;2022-09-12T00:49:58;11.50;99.90
6281;DHT22;3173;48.204;11.612;2022-09-12T00:52:27;11.50;99.90
6281;DHT22;3173;48.204;11.612;2022-09-12T00:55:00;11.50;99.90
6281;DHT22;3173;48.204;11.612;2022-09-12T00:57:34;11.50;99.90
6281;DHT22;3173;48.204;11.612;2022-09-12T01:00:20;11.40;99.90
6281;DHT22;3173;48.204;11.612;2022-09-12T01:02:50;11.50;99.90
6281;DHT22;3173;48.204;11.612;2022-09-12T01:05:17;11.50;99.90
6281;DHT22;3173;48.204;11.612;2022-09-12T01:07:43;11.40;99.90
6281;DHT22;3173;48.204;11.612;2022-09-12T01:10:13;11.40;99.90
6281;DHT22;3173;48.204;11.612;2022-09-12T01:12:40;11.40;99.90
6281;DHT22;3173;48.204;11.612;2022-09-12T01:15:07;11.50;99.90
6281;DHT22;3173;48.204;11.612;2022-09-12T01:26:40;11.50;99.90
6281;DHT22;3173;48.204;11.612;2022-09-12T01:29:43;11.40;99.90
6281;DHT22;3173;48.204;11.612;2022-09-12T01:32:25;11.50;99.90
6281;DHT22;3173;48.204;11.612;2022-09-12T01:35:24;11.30;99.90
6281;DHT22;3173;48.204;11.612;2022-09-12T01:38:21;11.40;99.90
6281;DHT22;3173;48.204;11.612;2022-09-12T01:44:08;11.50;99.90
6281;DHT22;3173;48.204;11.612;2022-09-12T01:46:47;11.40;99.90
6281;DHT22;3173;48.204;11.612;2022-09-12T01:51:54;11.40;99.90
6281;DHT22;3173;48.204;11.612;2022-09-12T01:54:34;11.90;99.90
6281;DHT22;3173;48.204;11.612;2022-09-12T01:57:07;11.30;99.90
6281;DHT22;3173;48.204;11.612;2022-09-12T01:59:42;11.10;99.90
